EDT,Max TemperatureF,Mean TemperatureF,Min TemperatureF,Max Dew PointF,MeanDew PointF,Min DewpointF,Max Humidity, Mean Humidity, Min Humidity, Max Sea Level PressureIn, Mean Sea Level PressureIn, Min Sea Level PressureIn, Max VisibilityMiles, Mean VisibilityMiles, Min VisibilityMiles, Max Wind SpeedMPH, Mean Wind SpeedMPH, Max Gust SpeedMPH,PrecipitationIn, CloudCover, Events, WindDirDegrees
2012-3-1,41,38,36,35,32,29,88,77,68,29.89,29.76,29.58,10,9,2,16,11,23,0.00,8,Rain,250
2012-3-2,55,44,32,49,35,30,94,85,73,29.88,29.57,29.17,10,7,1,33,4,44,0.00,4,Rain,103
2012-3-3,38,34,31,31,26,22,79,68,57,29.76,29.60,29.36,10,10,3,25,18,41,0.00,8,Snow,255
2012-3-4,37,32,28,28,25,24,88,77,61,29.85,29.79,29.75,10,8,1,13,7,20,0.00,8,Snow,274
2012-3-5,31,28,24,26,19,13,91,71,50,30.39,30.17,29.89,10,7,1,13,4,17,0.00,7,Snow,308
2012-3-6,59,44,28,34,26,20,72,57,35,30.40,30.26,30.09,10,10,10,20,8,28,0.00,4,,176
2012-3-7,67,57,47,43,34,27,50,41,33,30.17,30.10,30.00,10,10,10,26,15,37,0.00,1,,208
2012-3-8,61,50,37,53,42,24,88,71,54,30.13,29.92,29.83,10,9,2,22,15,33,0.00,7,Rain,249
2012-3-9,37,33,28,30,21,12,89,59,37,30.52,30.31,30.13,10,10,2,20,9,30,0.00,3,Snow,283
2012-3-10,49,35,21,25,17,10,80,52,34,30.56,30.47,30.31,10,10,10,16,5,22,0.00,0,,192
2012-3-11,65,48,32,34,26,24,74,44,21,30.36,30.29,30.21,10,10,10,12,6,20,0.00,0,,212
2012-3-12,63,54,44,56,45,32,92,73,44,30.21,30.08,29.90,10,9,3,14,6,22,0.00,6,Rain,174
2012-3-13,65,58,52,54,45,28,89,64,27,30.08,29.99,29.87,10,10,10,18,8,28,0.00,2,Rain,261
2012-3-14,77,57,37,51,39,30,83,57,33,30.16,30.11,30.03,10,10,10,14,3,22,0.00,0,,193
2012-3-15,76,68,60,63,55,51,80,67,59,30.08,30.04,29.96,10,10,3,15,8,24,0.00,2,Rain,189
2012-3-16,73,65,58,60,57,54,89,78,63,30.13,30.09,30.02,10,10,7,12,6,18,0.00,2,Rain,217
2012-3-17,76,64,52,58,54,50,93,74,42,30.20,30.16,30.10,10,8,2,12,4,18,0.00,1,,174
2012-3-18,71,60,50,61,56,49,93,80,57,30.14,30.10,30.05,10,8,3,9,3,,0.00,4,Rain,214
2012-3-19,75,63,51,62,56,50,95,82,59,30.13,30.09,30.06,10,6,0,8,2,,0.00,5,Fog-Rain,96
2012-3-20,81,66,51,58,54,49,94,71,38,30.17,30.12,30.07,10,8,2,9,2,,0.00,0,,154
2012-3-21,82,68,53,60,55,50,90,68,36,30.20,30.16,30.11,10,9,5,10,2,,0.00,0,,112
2012-3-22,83,67,51,57,53,49,92,69,35,30.15,30.13,30.08,10,9,5,7,1,,0.00,1,Rain,72
2012-3-23,70,63,56,55,52,50,83,73,59,30.10,30.03,29.92,10,10,5,7,4,,0.00,2,Rain,83
2012-3-24,61,55,49,56,51,48,95,91,79,29.87,29.83,29.77,7,4,0,10,4,,0.00,7,Fog-Rain,80
2012-3-25,70,60,49,53,50,47,94,79,51,29.96,29.91,29.87,10,6,2,9,3,,0.00,7,,348
2012-3-26,53,44,35,46,27,19,81,55,35,30.37,30.26,30.06,10,10,10,14,8,21,0.00,1,,23
2012-3-27,56,41,28,25,22,16,81,54,29,30.39,30.31,30.08,10,10,10,13,4,18,0.00,0,,140
2012-3-28,69,62,54,51,42,31,69,48,29,29.88,29.77,29.72,10,10,10,28,14,37,0.00,1,,249
2012-3-29,48,42,35,33,31,28,78,63,53,30.15,30.07,29.98,10,10,7,12,7,18,0.00,5,,6
2012-3-30,44,40,36,38,32,30,90,75,64,30.10,29.95,29.73,10,9,1,17,8,28,0.00,6,Rain,99
2012-3-31,42,39,36,36,33,32,89,81,70,30.00,29.96,29.87,10,8,4,8,5,,0.00,8,,28